METAR AND TAF INFORMATION
METAR FOR MUHA
ADDS - METARS form results

(1925 UTC 26 April 2018)
Data provider http://aviationweather.gov/adds/metars/
 
METAR text: MUHA 261855Z 23007KT 9000 BKN020 28/21 Q1013
Conditions at: MUHA (HAVANA/JOSE MAR , CU) observed 1855 UTC 26 April 2018
Temperature: 28.0°C (82°F)
Dewpoint: 21.0°C (70°F) [RH = 66%]
Pressure (altimeter): 29.91 inches Hg (1013.0 mb)
Winds: from the SW (230 degrees) at 8 MPH (7 knots; 3.6 m/s)
Visibility: 6 miles (9 km)
Ceiling: 2000 feet AGL
Clouds: broken clouds at 2000 feet AGL
Weather: no significant weather observed at this time

Forecast for: MUHA (HAVANA/JOSE MAR , CU)
Text: MUHA 261700Z 2618/2718 22008KT 9000 BKN025
Forecast period: 1800 UTC 26 April 2018 to 1800 UTC 27 April 2018
Forecast type: FROM: standard forecast or significant change
Winds: from the SW (220 degrees) at 9 MPH (8 knots; 4.2 m/s)
Visibility: 6 miles (9 km)
Ceiling: 2500 feet AGL
Clouds: broken clouds at 2500 feet AGL
Weather: no significant weather forecast for this period
Forecast for: MUHA (HAVANA/JOSE MAR , CU)
Text: MUHA 261700Z 2618/2718 22008KT 9000 BKN025
Forecast period: 1800 UTC 26 April 2018 to 1800 UTC 27 April 2018
Forecast type: FROM: standard forecast or significant change
Winds: from the SW (220 degrees) at 9 MPH (8 knots; 4.2 m/s)
Visibility: 6 miles (9 km)
Ceiling: 2500 feet AGL
Clouds: broken clouds at 2500 feet AGL
Weather: no significant weather forecast for this period
Forecast for: MUHA (HAVANA/JOSE MAR , CU)
Text: MUHA 261700Z 2618/2718 22008KT 9000 BKN025
Forecast period: 2000 to 2300 UTC 26 April 2018
Forecast type: TEMPORARY: The following changes expected for less than half the time period
Winds: variable direction winds at 12 MPH (10 knots; 5.2 m/s)
Visibility: 2.49 miles (4.01 km)
Ceiling: 3000 feet AGL
Clouds: few clouds at 1800 feet AGL
broken clouds at 3000 feet AGL
Weather: SHRA  (rain showers)
Forecast for: MUHA (HAVANA/JOSE MAR , CU)
Text: MUHA 261700Z 2618/2718 22008KT 9000 BKN025
Forecast period: 2000 to 2300 UTC 26 April 2018
Forecast type: TEMPORARY: The following changes expected for less than half the time period
Winds: variable direction winds at 12 MPH (10 knots; 5.2 m/s)
Visibility: 2.49 miles (4.01 km)
Ceiling: 3000 feet AGL
Clouds: few clouds at 1800 feet AGL
broken clouds at 3000 feet AGL
Weather: SHRA  (rain showers)

 AIRPORT MAP

 RUNWAY INFORMATION
Runway 06 Runway length 13123 ft Runway width 148 ft
Runway elevation 210 ft Runway displaced threshold 0 ft Runway heading 54
Runway 24 Runway length 13123 ft Runway width 148 ft
Runway elevation 210 ft Runway displaced threshold 0 ft Runway heading 234

 AIRPORT FREQUENCIES
Type A/G Name BOYEROS RD Frequency 126.9 MHZ
Type A/G Name BOYEROS RD Frequency 288.7 MHZ
Type A/G Name BOYEROS RD Frequency 1132.1 MHZ
Type A/G Name BOYEROS RD Frequency 1329.7 MHZ
Type APP Name HABANA APP Frequency 119.35 MHZ
Type ATIS Name ATIS Frequency 132.5 MHZ
Type CLD Name CLNC DEL Frequency 121.9 MHZ
Type GND Name GND Frequency 121.9 MHZ
Type TWR Name MARTI TWR Frequency 118.1 MHZ

 AIRPORT NEAR NAVIGATION AIDS
Type VOR-DME Name Habana Frequency 116100 KHZ



v2.6.1